Time;durP1;ratioP1;P1;durP2;ratioP2;P2;SDS_P1;SDS_P2;PMS_P1;PMS_P2;Temp;Humidity;BMP_temperature;BMP_pressure;BME280_temperature;BME280_humidity;BME280_pressure;Samples;Min_cycle;Max_cycle;Signal;HPM_P1;HPM_P2
2023/05/24 00:01:30;;;;;;;0.82;0.30;;;7.30;99.90;;;;;;5050484;28;20045;-71
2023/05/24 00:03:59;;;;;;;0.43;0.43;;;7.30;99.90;;;;;;5056102;28;20049;-71
2023/05/24 00:06:26;;;;;;;;;;;7.30;99.90;;;;;;5048247;28;20127;-71
2023/05/24 00:08:52;;;;;;;0.90;0.63;;;7.20;99.90;;;;;;5052524;28;19925;-71
2023/05/24 00:11:18;;;;;;;0.40;0.40;;;7.20;99.90;;;;;;5049629;28;20617;-71
2023/05/24 00:13:44;;;;;;;0.40;0.40;;;7.20;99.90;;;;;;5052681;28;20060;-71
2023/05/24 00:16:10;;;;;;;0.50;0.50;;;7.10;99.90;;;;;;5056672;28;20482;-71
2023/05/24 00:18:39;;;;;;;0.30;0.30;;;7.10;99.90;;;;;;5052004;28;20075;-71
2023/05/24 00:21:08;;;;;;;0.63;0.63;;;7.10;99.90;;;;;;5054281;28;21068;-70
2023/05/24 00:23:35;;;;;;;0.30;0.30;;;7.10;99.90;;;;;;5043877;28;20037;-70
2023/05/24 00:26:02;;;;;;;0.68;0.68;;;7.10;99.90;;;;;;5048617;28;20814;-70
2023/05/24 00:28:30;;;;;;;0.40;0.40;;;7.10;99.90;;;;;;5046167;28;20449;-71
2023/05/24 00:30:56;;;;;;;0.40;0.40;;;7.00;99.90;;;;;;5054107;28;20056;-71
2023/05/24 00:33:22;;;;;;;0.82;0.52;;;7.00;99.90;;;;;;5051033;28;20489;-71
2023/05/24 00:35:53;;;;;;;0.40;0.40;;;7.00;99.90;;;;;;5051885;28;20120;-71
2023/05/24 00:38:19;;;;;;;0.30;0.30;;;7.00;99.90;;;;;;5053484;28;20064;-71
2023/05/24 00:40:44;;;;;;;0.52;0.52;;;7.00;99.90;;;;;;5039226;28;20052;-71
2023/05/24 00:43:10;;;;;;;1.23;0.55;;;7.00;99.90;;;;;;5046824;28;20037;-71
2023/05/24 00:45:36;;;;;;;0.50;0.50;;;7.00;99.90;;;;;;5052818;28;20100;-71
2023/05/24 00:48:03;;;;;;;0.55;0.55;;;6.90;99.90;;;;;;5051075;28;20048;-71
2023/05/24 00:50:28;;;;;;;0.40;0.40;;;6.90;99.90;;;;;;5054615;28;20131;-71
2023/05/24 00:52:58;;;;;;;0.32;0.32;;;6.90;99.90;;;;;;5053351;28;20132;-71
2023/05/24 00:55:24;;;;;;;0.50;0.50;;;6.90;99.90;;;;;;5055331;28;20068;-71
2023/05/24 00:57:51;;;;;;;0.40;0.40;;;6.90;99.90;;;;;;5041457;28;20832;-71
2023/05/24 01:00:17;;;;;;;0.50;0.50;;;6.90;99.90;;;;;;5046933;28;20048;-71
2023/05/24 01:02:43;;;;;;;0.50;0.50;;;6.90;99.90;;;;;;5048577;28;20049;-70
2023/05/24 01:05:12;;;;;;;1.85;1.05;;;6.90;99.90;;;;;;5047816;28;20103;-71
2023/05/24 01:07:58;;;;;;;0.35;0.35;;;6.90;99.90;;;;;;5045887;28;20045;-71
2023/05/24 01:10:42;;;;;;;0.63;0.63;;;6.80;99.90;;;;;;5049189;28;20052;-70
2023/05/24 01:13:13;;;;;;;0.30;0.30;;;6.80;99.90;;;;;;5046474;28;20053;-70
2023/05/24 01:15:51;;;;;;;0.57;0.57;;;6.80;99.90;;;;;;5050762;28;20053;-71
2023/05/24 01:18:25;;;;;;;0.82;0.70;;;6.80;99.90;;;;;;5043965;28;20048;-71
2023/05/24 01:21:12;;;;;;;1.05;0.82;;;6.80;99.90;;;;;;5044077;28;20049;-71
2023/05/24 01:24:04;;;;;;;0.40;0.40;;;6.80;99.90;;;;;;5046739;28;20080;-71
2023/05/24 01:26:43;;;;;;;0.40;0.40;;;6.80;99.90;;;;;;5048631;28;20461;-71
2023/05/24 01:29:10;;;;;;;0.82;0.60;;;6.80;99.90;;;;;;5047358;28;20049;-70
2023/05/24 01:31:36;;;;;;;0.50;0.50;;;6.80;99.90;;;;;;5054738;28;20067;-70
2023/05/24 01:34:02;;;;;;;2.75;0.63;;;6.80;99.90;;;;;;5050334;28;20067;-70
2023/05/24 01:36:27;;;;;;;0.30;0.30;;;6.80;99.90;;;;;;5051738;28;20067;-71
2023/05/24 01:38:53;;;;;;;0.77;0.43;;;6.80;99.90;;;;;;5048894;28;20037;-71
2023/05/24 01:41:44;;;;;;;0.40;0.40;;;6.80;99.90;;;;;;5050117;28;20052;-71
2023/05/24 01:44:28;;;;;;;0.70;0.70;;;6.80;99.90;;;;;;5042578;28;20049;-71
2023/05/24 01:47:03;;;;;;;0.68;0.68;;;6.80;99.90;;;;;;5050917;28;20048;-70
2023/05/24 01:49:36;;;;;;;0.32;0.32;;;6.80;99.90;;;;;;5046779;28;20037;-71
2023/05/24 01:52:14;;;;;;;0.40;0.40;;;6.80;99.90;;;;;;5047261;28;20060;-71
2023/05/24 01:54:44;;;;;;;0.40;0.40;;;6.80;99.90;;;;;;5051604;28;20095;-71
2023/05/24 01:57:10;;;;;;;0.40;0.40;;;6.80;99.90;;;;;;5056005;28;20488;-71
2023/05/24 01:59:38;;;;;;;0.52;0.52;;;6.90;99.90;;;;;;5048917;28;20044;-71
2023/05/24 02:02:04;;;;;;;0.50;0.50;;;6.90;99.90;;;;;;5050252;28;20051;-71
2023/05/24 02:04:30;;;;;;;1.67;0.93;;;6.90;99.90;;;;;;5052207;28;20112;-71
2023/05/24 02:06:56;;;;;;;0.60;0.60;;;6.90;99.90;;;;;;5049020;28;20045;-70
2023/05/24 02:09:22;;;;;;;4.20;0.65;;;6.90;99.90;;;;;;5043264;28;20045;-70
2023/05/24 02:11:47;;;;;;;0.40;0.40;;;7.00;99.90;;;;;;5048172;28;20159;-70
2023/05/24 02:14:13;;;;;;;0.73;0.47;;;7.00;99.90;;;;;;5049174;28;20111;-70
2023/05/24 02:16:41;;;;;;;1.38;0.65;;;7.00;99.90;;;;;;5044844;28;20045;-71
2023/05/24 02:19:10;;;;;;;0.40;0.40;;;7.10;99.90;;;;;;5051789;28;20048;-71
2023/05/24 02:21:35;;;;;;;0.80;0.80;;;7.10;99.90;;;;;;5048771;28;20081;-71
2023/05/24 02:24:01;;;;;;;0.77;0.77;;;7.10;99.90;;;;;;5046159;28;20130;-71
2023/05/24 02:26:27;;;;;;;0.73;0.73;;;7.20;99.90;;;;;;5052398;28;20044;-71
2023/05/24 02:28:53;;;;;;;0.85;0.85;;;7.20;99.90;;;;;;5055462;28;20056;-71
2023/05/24 02:31:18;;;;;;;1.40;1.13;;;7.30;99.90;;;;;;5051075;28;20046;-71
2023/05/24 02:33:44;;;;;;;0.32;0.32;;;7.30;99.90;;;;;;5048165;28;20045;-71
2023/05/24 02:36:10;;;;;;;0.60;0.60;;;7.40;99.90;;;;;;5051241;28;20047;-71
2023/05/24 02:38:36;;;;;;;0.60;0.60;;;7.30;99.90;;;;;;5054036;28;20482;-71
2023/05/24 02:41:02;;;;;;;0.40;0.40;;;7.40;99.90;;;;;;5046283;28;20041;-71
2023/05/24 02:43:28;;;;;;;0.40;0.40;;;7.40;99.90;;;;;;5051353;28;20044;-71
2023/05/24 02:45:54;;;;;;;0.40;0.40;;;7.40;99.90;;;;;;5055444;28;20486;-71
2023/05/24 02:48:20;;;;;;;0.45;0.45;;;7.40;99.90;;;;;;5046896;28;20052;-71
2023/05/24 02:50:45;;;;;;;0.30;0.30;;;7.40;99.90;;;;;;5053287;28;20077;-71
2023/05/24 02:53:11;;;;;;;0.75;0.65;;;7.40;99.90;;;;;;5050921;28;20532;-70
2023/05/24 02:55:37;;;;;;;0.40;0.40;;;7.30;99.90;;;;;;5052222;28;20608;-71
2023/05/24 02:58:03;;;;;;;0.38;0.38;;;7.30;99.90;;;;;;5047709;28;20044;-71
2023/05/24 03:00:28;;;;;;;0.50;0.50;;;7.30;99.90;;;;;;5050476;28;20379;-71
2023/05/24 03:02:56;;;;;;;1.00;0.88;;;7.30;99.90;;;;;;5053935;28;20410;-71
2023/05/24 03:05:22;;;;;;;0.50;0.50;;;7.30;99.90;;;;;;5043629;28;20522;-71
2023/05/24 03:07:47;;;;;;;0.60;0.60;;;7.20;99.90;;;;;;5050150;28;20162;-71
2023/05/24 03:10:13;;;;;;;0.63;0.63;;;7.20;99.90;;;;;;5053469;28;20037;-71
2023/05/24 03:12:39;;;;;;;1.15;1.10;;;7.20;99.90;;;;;;5045599;28;20049;-72
2023/05/24 03:15:05;;;;;;;0.52;0.52;;;7.10;99.90;;;;;;5046137;28;20494;-71
2023/05/24 03:17:30;;;;;;;0.65;0.55;;;7.20;99.90;;;;;;5048844;28;20045;-71
2023/05/24 03:19:56;;;;;;;0.47;0.47;;;7.20;99.90;;;;;;5037254;28;20048;-71
2023/05/24 03:22:22;;;;;;;0.30;0.30;;;7.20;99.90;;;;;;5050388;28;20554;-71
2023/05/24 03:24:47;;;;;;;0.40;0.40;;;7.20;99.90;;;;;;5051892;28;20103;-71
2023/05/24 03:27:13;;;;;;;0.35;0.35;;;7.20;99.90;;;;;;5051910;28;20052;-72
2023/05/24 03:29:39;;;;;;;0.50;0.50;;;7.20;99.90;;;;;;5059397;28;20405;-71
2023/05/24 03:32:04;;;;;;;0.43;0.43;;;7.20;99.90;;;;;;5049678;28;20048;-71
2023/05/24 03:34:30;;;;;;;0.47;0.47;;;7.10;99.90;;;;;;5057693;28;20072;-72
2023/05/24 03:36:56;;;;;;;0.40;0.40;;;7.20;99.90;;;;;;5049554;28;20055;-71
2023/05/24 03:39:22;;;;;;;0.55;0.55;;;7.10;99.90;;;;;;5053391;28;20047;-71
2023/05/24 03:41:47;;;;;;;0.70;0.70;;;7.10;99.90;;;;;;5049539;28;20513;-71
2023/05/24 03:44:13;;;;;;;0.63;0.63;;;7.10;99.90;;;;;;5041948;28;20052;-71
2023/05/24 03:46:39;;;;;;;0.30;0.30;;;7.10;99.90;;;;;;5045237;28;20036;-71
2023/05/24 03:49:06;;;;;;;0.75;0.75;;;7.10;99.90;;;;;;5044996;28;20166;-72
2023/05/24 03:51:32;;;;;;;0.40;0.40;;;7.20;99.90;;;;;;5050924;28;20167;-71
2023/05/24 03:53:58;;;;;;;0.30;0.30;;;7.30;99.90;;;;;;5053052;28;20055;-71
2023/05/24 03:56:25;;;;;;;0.63;0.63;;;7.30;99.90;;;;;;5052491;28;20110;-71
2023/05/24 03:58:51;;;;;;;0.40;0.40;;;7.40;99.90;;;;;;5052896;28;20055;-71
2023/05/24 04:01:21;;;;;;;0.70;0.70;;;7.40;99.90;;;;;;5053204;28;20045;-71
2023/05/24 04:03:47;;;;;;;0.45;0.45;;;7.60;99.90;;;;;;5053047;28;20608;-71
2023/05/24 04:06:13;;;;;;;0.40;0.40;;;7.60;99.90;;;;;;5048288;28;20048;-71
2023/05/24 04:08:39;;;;;;;0.60;0.60;;;7.70;99.90;;;;;;5057067;28;20124;-71
2023/05/24 04:11:04;;;;;;;0.30;0.30;;;7.70;99.90;;;;;;5052470;28;20045;-71
2023/05/24 04:13:30;;;;;;;0.30;0.30;;;7.80;99.90;;;;;;5043219;28;20049;-71
2023/05/24 04:15:56;;;;;;;0.45;0.45;;;7.80;99.90;;;;;;5046600;28;20041;-71
2023/05/24 04:18:21;;;;;;;0.50;0.50;;;7.90;99.90;;;;;;5051007;28;20394;-71
2023/05/24 04:20:47;;;;;;;0.40;0.40;;;8.00;99.90;;;;;;5047030;28;20339;-71
2023/05/24 04:23:12;;;;;;;0.77;0.77;;;8.10;99.90;;;;;;5045555;28;20390;-71
2023/05/24 04:25:38;;;;;;;0.43;0.43;;;8.10;99.90;;;;;;5048739;28;20383;-71
2023/05/24 04:28:04;;;;;;;0.40;0.40;;;8.20;99.90;;;;;;5056070;28;20036;-71
2023/05/24 04:30:31;;;;;;;0.60;0.60;;;8.20;99.90;;;;;;5051184;28;20576;-72
2023/05/24 04:32:57;;;;;;;0.40;0.40;;;8.30;99.90;;;;;;5028284;28;20051;-72
2023/05/24 04:35:24;;;;;;;0.40;0.40;;;8.40;99.90;;;;;;5045396;28;20046;-72
2023/05/24 04:37:50;;;;;;;0.50;0.50;;;8.40;99.90;;;;;;5049619;28;20131;-71
2023/05/24 04:40:19;;;;;;;0.43;0.43;;;8.50;99.90;;;;;;5033246;28;20094;-71
2023/05/24 04:42:45;;;;;;;0.30;0.30;;;8.50;99.90;;;;;;5048967;28;20053;-71
2023/05/24 04:45:11;;;;;;;0.40;0.40;;;8.60;99.90;;;;;;5051484;28;20044;-71
2023/05/24 04:47:36;;;;;;;0.30;0.30;;;8.70;99.90;;;;;;5056881;28;20448;-71
2023/05/24 04:50:02;;;;;;;0.40;0.40;;;8.70;99.90;;;;;;5048608;28;20045;-71
2023/05/24 04:52:29;;;;;;;0.40;0.40;;;8.80;99.90;;;;;;5045037;28;20041;-71
2023/05/24 04:54:56;;;;;;;0.45;0.45;;;8.90;99.90;;;;;;5047661;28;20049;-71
2023/05/24 04:57:22;;;;;;;0.40;0.40;;;8.90;99.90;;;;;;5052485;28;20044;-72
2023/05/24 04:59:48;;;;;;;0.40;0.40;;;9.00;99.90;;;;;;5048630;28;20040;-72
2023/05/24 05:02:14;;;;;;;0.40;0.40;;;9.10;99.90;;;;;;5053085;28;20080;-72
2023/05/24 05:04:41;;;;;;;0.40;0.40;;;9.20;99.90;;;;;;5056067;28;20040;-72
2023/05/24 05:07:07;;;;;;;0.45;0.45;;;9.30;99.90;;;;;;5026175;28;20041;-72
2023/05/24 05:09:32;;;;;;;0.50;0.50;;;9.30;99.90;;;;;;5046782;28;20053;-72
2023/05/24 05:11:59;;;;;;;0.50;0.50;;;9.40;99.90;;;;;;5047940;28;20542;-72
2023/05/24 05:14:25;;;;;;;0.40;0.40;;;9.50;99.90;;;;;;5049664;28;20107;-72
2023/05/24 05:16:50;;;;;;;0.43;0.43;;;9.50;99.90;;;;;;5046369;28;20491;-72
2023/05/24 05:19:16;;;;;;;0.32;0.32;;;9.50;99.90;;;;;;5051117;28;20102;-72
2023/05/24 05:21:42;;;;;;;0.50;0.50;;;9.60;99.90;;;;;;5055032;28;20490;-72
2023/05/24 05:24:07;;;;;;;0.57;0.57;;;9.70;99.90;;;;;;5051708;28;20120;-72
2023/05/24 05:26:34;;;;;;;0.40;0.40;;;9.80;99.90;;;;;;5052777;28;20094;-72
2023/05/24 05:29:00;;;;;;;0.22;0.22;;;9.90;99.90;;;;;;5047054;28;20076;-72
2023/05/24 05:31:28;;;;;;;0.38;0.38;;;10.00;99.90;;;;;;5044413;28;20079;-72
2023/05/24 05:33:53;;;;;;;0.40;0.40;;;10.10;99.90;;;;;;5055193;28;20053;-72
2023/05/24 05:36:20;;;;;;;0.68;0.50;;;10.20;99.90;;;;;;5052519;28;20043;-72
2023/05/24 05:38:45;;;;;;;0.40;0.40;;;10.30;99.90;;;;;;5049375;28;20041;-71
2023/05/24 05:41:11;;;;;;;0.30;0.30;;;10.20;99.90;;;;;;5050497;28;20048;-72
2023/05/24 05:43:37;;;;;;;0.50;0.50;;;10.30;99.90;;;;;;5050654;28;20600;-72
2023/05/24 05:46:03;;;;;;;0.50;0.35;;;10.40;99.90;;;;;;5049682;28;20524;-72
2023/05/24 05:48:29;;;;;;;0.50;0.50;;;10.60;99.90;;;;;;5050137;28;20090;-72
2023/05/24 05:50:54;;;;;;;0.70;0.70;;;10.90;99.90;;;;;;5052399;28;20510;-72
2023/05/24 05:53:20;;;;;;;0.32;0.32;;;11.10;99.90;;;;;;5049576;28;20477;-72
2023/05/24 05:55:46;;;;;;;0.50;0.50;;;11.30;99.90;;;;;;5041290;28;20057;-72
2023/05/24 05:58:11;;;;;;;0.40;0.40;;;11.40;99.90;;;;;;5050277;28;20123;-72
2023/05/24 06:00:38;;;;;;;0.30;0.30;;;11.50;99.90;;;;;;5042676;28;20521;-72
2023/05/24 06:03:04;;;;;;;0.40;0.40;;;11.50;99.90;;;;;;5054694;28;20781;-71
2023/05/24 06:05:30;;;;;;;0.63;0.63;;;11.60;99.90;;;;;;5050514;28;20045;-72
2023/05/24 06:07:55;;;;;;;0.40;0.40;;;11.70;99.90;;;;;;5044691;28;20664;-72
2023/05/24 06:10:21;;;;;;;0.50;0.50;;;11.60;99.90;;;;;;5047550;28;20070;-72
2023/05/24 06:12:46;;;;;;;0.50;0.50;;;11.60;99.90;;;;;;5044493;28;20072;-72
2023/05/24 06:15:13;;;;;;;0.38;0.38;;;11.60;99.90;;;;;;5046343;28;20056;-72
2023/05/24 06:17:40;;;;;;;0.40;0.40;;;11.70;99.90;;;;;;5038983;28;20068;-71
2023/05/24 06:20:09;;;;;;;1.08;0.85;;;11.70;99.90;;;;;;5032889;28;20049;-72
2023/05/24 06:22:36;;;;;;;0.47;0.47;;;11.70;99.90;;;;;;5043842;28;20135;-71
2023/05/24 06:25:04;;;;;;;1.30;0.65;;;11.70;99.90;;;;;;5048496;28;20076;-72
2023/05/24 06:27:31;;;;;;;1.45;0.75;;;11.70;99.90;;;;;;5039713;28;20140;-71
2023/05/24 06:29:57;;;;;;;0.65;0.65;;;11.80;99.90;;;;;;5040787;28;20413;-71
2023/05/24 06:32:25;;;;;;;0.32;0.32;;;11.80;99.90;;;;;;5041545;28;20052;-71
2023/05/24 06:34:51;;;;;;;0.30;0.30;;;11.80;99.90;;;;;;5042045;28;20049;-71
2023/05/24 06:37:17;;;;;;;0.43;0.43;;;11.90;99.90;;;;;;5044342;28;20520;-71
2023/05/24 06:39:43;;;;;;;0.38;0.38;;;11.90;99.90;;;;;;5044234;28;20049;-71
2023/05/24 06:42:08;;;;;;;0.60;0.60;;;12.00;99.90;;;;;;5043130;28;20538;-72
2023/05/24 06:44:34;;;;;;;0.60;0.60;;;12.10;99.90;;;;;;5038751;28;20042;-71
2023/05/24 06:47:00;;;;;;;1.15;1.05;;;12.20;99.90;;;;;;5037543;28;20049;-71
2023/05/24 06:49:27;;;;;;;1.23;0.70;;;12.20;99.90;;;;;;5040204;28;20047;-71
2023/05/24 06:51:52;;;;;;;0.65;0.65;;;12.40;99.90;;;;;;5046696;28;20049;-71
2023/05/24 06:54:18;;;;;;;4.78;1.23;;;12.40;99.90;;;;;;5046712;28;20049;-71
2023/05/24 06:56:44;;;;;;;1.77;1.65;;;12.60;99.90;;;;;;5053751;28;20566;-71
2023/05/24 06:59:10;;;;;;;1.20;1.10;;;12.80;99.90;;;;;;5047701;28;20045;-71
2023/05/24 07:01:38;;;;;;;0.43;0.40;;;12.80;99.90;;;;;;5056936;28;20477;-71
2023/05/24 07:04:08;;;;;;;0.77;0.77;;;12.90;99.90;;;;;;5050785;28;20041;-71
2023/05/24 07:06:34;;;;;;;2.20;2.03;;;12.80;99.90;;;;;;5052982;28;20494;-71
2023/05/24 07:09:03;;;;;;;2.67;2.53;;;12.90;99.90;;;;;;5049292;28;20057;-71
2023/05/24 07:11:29;;;;;;;0.90;0.90;;;13.00;99.90;;;;;;5050084;28;20057;-72
2023/05/24 07:13:56;;;;;;;0.40;0.40;;;13.10;99.90;;;;;;5053177;28;20048;-71
2023/05/24 07:16:21;;;;;;;1.63;1.52;;;13.00;99.90;;;;;;5057348;28;20052;-71
2023/05/24 07:18:47;;;;;;;0.85;0.85;;;13.00;99.90;;;;;;5052235;28;20414;-72
2023/05/24 07:21:13;;;;;;;0.32;0.32;;;13.00;99.90;;;;;;5055268;28;20395;-71
2023/05/24 07:23:38;;;;;;;0.60;0.60;;;12.90;99.90;;;;;;5049779;28;20043;-71
2023/05/24 07:26:04;;;;;;;3.63;0.90;;;12.80;99.90;;;;;;5052711;28;20861;-71
2023/05/24 07:28:31;;;;;;;0.68;0.68;;;12.80;99.90;;;;;;5044953;28;20041;-71
2023/05/24 07:30:57;;;;;;;0.90;0.90;;;12.90;99.90;;;;;;5056106;28;20049;-72
2023/05/24 07:33:23;;;;;;;0.52;0.52;;;12.90;99.90;;;;;;5049402;28;20103;-71
2023/05/24 07:35:51;;;;;;;2.25;2.05;;;12.90;99.90;;;;;;5053565;28;20783;-71
2023/05/24 07:38:17;;;;;;;;;;;12.80;99.90;;;;;;5044638;28;20045;-72
2023/05/24 07:40:43;;;;;;;2.40;2.15;;;12.80;99.90;;;;;;5046091;28;19982;-71
2023/05/24 07:43:08;;;;;;;1.92;1.80;;;12.90;99.90;;;;;;5059023;28;20109;-71
2023/05/24 07:45:34;;;;;;;0.95;0.95;;;12.90;99.90;;;;;;5048625;28;20049;-71
2023/05/24 07:48:00;;;;;;;0.75;0.75;;;13.00;99.90;;;;;;5057570;28;20048;-72
2023/05/24 07:50:26;;;;;;;1.70;1.60;;;13.20;99.90;;;;;;5050375;28;20563;-72
2023/05/24 07:52:52;;;;;;;4.00;1.05;;;13.50;99.90;;;;;;5053404;28;20049;-72
2023/05/24 07:55:18;;;;;;;1.05;1.02;;;14.00;99.90;;;;;;5058266;28;20053;-72
2023/05/24 07:57:43;;;;;;;1.10;1.05;;;14.40;99.90;;;;;;5050283;28;20044;-72
2023/05/24 08:00:13;;;;;;;4.57;1.67;;;14.80;99.90;;;;;;5050622;28;20052;-72
2023/05/24 08:02:42;;;;;;;0.57;0.57;;;14.80;99.90;;;;;;5049237;28;20051;-72
2023/05/24 08:05:13;;;;;;;0.90;0.90;;;14.90;99.90;;;;;;5036013;28;20138;-72
2023/05/24 08:07:40;;;;;;;0.88;0.88;;;15.00;99.90;;;;;;5050059;28;20098;-72
2023/05/24 08:10:08;;;;;;;0.77;0.77;;;15.30;99.90;;;;;;5053197;28;20060;-72
2023/05/24 08:12:33;;;;;;;1.05;1.05;;;15.70;99.90;;;;;;5047806;28;20049;-72
2023/05/24 08:14:59;;;;;;;0.85;0.85;;;16.00;99.90;;;;;;5054644;28;20099;-72
2023/05/24 08:17:26;;;;;;;0.43;0.43;;;16.00;99.90;;;;;;5050154;28;20036;-72
2023/05/24 08:19:51;;;;;;;0.38;0.38;;;16.10;98.80;;;;;;5047479;28;20551;-72
2023/05/24 08:22:18;;;;;;;0.98;0.98;;;16.20;96.20;;;;;;5052120;28;20037;-72
2023/05/24 08:24:44;;;;;;;1.17;0.77;;;16.30;97.90;;;;;;5054681;28;20265;-73
2023/05/24 08:27:09;;;;;;;0.57;0.57;;;16.20;87.50;;;;;;5047546;28;20045;-73
2023/05/24 08:29:36;;;;;;;0.65;0.65;;;16.00;90.90;;;;;;5051363;28;20107;-73
2023/05/24 08:32:02;;;;;;;0.90;0.90;;;15.70;92.60;;;;;;5048945;28;20045;-73
2023/05/24 08:34:28;;;;;;;1.10;0.90;;;15.60;95.30;;;;;;5053595;28;20512;-73
2023/05/24 08:36:54;;;;;;;1.25;1.10;;;15.70;97.00;;;;;;5057763;28;20037;-72
2023/05/24 08:39:20;;;;;;;0.40;0.40;;;15.60;98.20;;;;;;5055771;28;20726;-72
2023/05/24 08:41:46;;;;;;;1.52;0.82;;;15.60;98.20;;;;;;5051126;28;20505;-72
2023/05/24 08:44:12;;;;;;;0.50;0.50;;;15.40;95.30;;;;;;5054196;28;20045;-72
2023/05/24 08:46:38;;;;;;;1.25;1.15;;;15.40;97.60;;;;;;5056252;28;20517;-72
2023/05/24 08:49:04;;;;;;;1.10;1.00;;;15.40;99.80;;;;;;5053319;28;20041;-72
2023/05/24 08:51:30;;;;;;;0.98;0.80;;;15.40;96.60;;;;;;5047703;28;20044;-72
2023/05/24 08:54:00;;;;;;;1.80;1.08;;;15.30;97.60;;;;;;5050592;28;20072;-72
2023/05/24 08:56:27;;;;;;;0.73;0.73;;;15.30;99.90;;;;;;5047397;28;20061;-72
2023/05/24 08:58:54;;;;;;;0.40;0.40;;;15.30;98.10;;;;;;5047074;28;20060;-72
2023/05/24 09:01:20;;;;;;;2.30;1.15;;;15.20;99.90;;;;;;5054541;28;20397;-72
2023/05/24 09:03:49;;;;;;;0.77;0.77;;;15.20;98.50;;;;;;5047999;28;20138;-72
2023/05/24 09:06:17;;;;;;;0.63;0.63;;;15.10;99.90;;;;;;5052815;28;20278;-71
2023/05/24 09:08:48;;;;;;;0.43;0.43;;;15.10;99.90;;;;;;5047104;28;20049;-72
2023/05/24 09:11:15;;;;;;;0.98;0.80;;;15.20;99.90;;;;;;5057129;28;20058;-72
2023/05/24 09:13:43;;;;;;;0.80;0.80;;;15.20;99.90;;;;;;5049626;28;20048;-72
2023/05/24 09:16:09;;;;;;;1.30;1.23;;;15.00;99.90;;;;;;5055380;28;20056;-72
2023/05/24 09:18:35;;;;;;;1.08;1.02;;;15.00;99.90;;;;;;5049440;28;20048;-72
2023/05/24 09:21:01;;;;;;;0.82;0.80;;;15.00;99.90;;;;;;5046547;28;20053;-72
2023/05/24 09:23:28;;;;;;;1.45;1.25;;;15.00;99.90;;;;;;5047446;28;20532;-72
2023/05/24 09:25:54;;;;;;;1.15;1.05;;;15.00;99.90;;;;;;5045629;28;20525;-72
2023/05/24 09:28:20;;;;;;;0.77;0.77;;;15.20;99.90;;;;;;5047388;28;20037;-71
2023/05/24 09:30:58;;;;;;;0.60;0.60;;;15.20;96.80;;;;;;5050277;28;20077;-72
2023/05/24 09:33:31;;;;;;;1.60;1.38;;;15.20;95.80;;;;;;5048972;28;20052;-72
2023/05/24 09:36:03;;;;;;;2.95;2.08;;;15.20;99.90;;;;;;5054604;28;20045;-72
2023/05/24 09:38:29;;;;;;;0.80;0.65;;;15.30;99.90;;;;;;5053143;28;20099;-72
2023/05/24 09:41:00;;;;;;;1.05;0.57;;;15.40;99.90;;;;;;5045897;28;20045;-71
2023/05/24 09:43:25;;;;;;;0.60;0.60;;;15.50;99.90;;;;;;5051243;28;20052;-72
2023/05/24 09:45:52;;;;;;;1.70;1.05;;;15.60;99.90;;;;;;5050552;28;20036;-72
2023/05/24 09:48:19;;;;;;;1.25;1.15;;;15.60;97.90;;;;;;5054290;28;20149;-72
2023/05/24 09:51:02;;;;;;;0.88;0.88;;;15.60;92.70;;;;;;5054687;28;20053;-72
2023/05/24 09:53:28;;;;;;;1.05;1.05;;;15.50;94.90;;;;;;5039874;28;20061;-72
2023/05/24 09:55:54;;;;;;;0.65;0.65;;;15.50;97.00;;;;;;5047671;28;20111;-72
2023/05/24 09:58:21;;;;;;;0.45;0.45;;;15.60;99.10;;;;;;5051070;28;20049;-71
2023/05/24 10:00:47;;;;;;;0.65;0.65;;;15.60;97.40;;;;;;5054703;28;20056;-71
2023/05/24 10:03:13;;;;;;;0.82;0.82;;;15.60;97.00;;;;;;5052490;28;20052;-71
2023/05/24 10:05:46;;;;;;;0.70;0.57;;;15.60;97.50;;;;;;5046679;28;20056;-71
2023/05/24 10:08:13;;;;;;;0.85;0.85;;;15.60;99.20;;;;;;5047284;28;20056;-71
2023/05/24 10:10:40;;;;;;;0.82;0.82;;;15.60;97.50;;;;;;5045660;28;20132;-71
2023/05/24 10:13:06;;;;;;;0.70;0.70;;;15.60;99.90;;;;;;5047183;28;20060;-71
2023/05/24 10:15:32;;;;;;;1.65;1.33;;;15.70;99.90;;;;;;5044847;28;20048;-70
2023/05/24 10:18:06;;;;;;;2.00;1.30;;;15.70;99.50;;;;;;5049899;28;20052;-71
2023/05/24 10:20:33;;;;;;;0.65;0.65;;;15.70;99.90;;;;;;5053214;28;20060;-69
2023/05/24 10:23:00;;;;;;;1.58;1.00;;;15.70;96.00;;;;;;5054075;28;20401;-68
2023/05/24 10:25:28;;;;;;;0.88;0.88;;;15.80;99.10;;;;;;5051039;28;20049;-69
2023/05/24 10:27:57;;;;;;;0.82;0.82;;;15.90;99.90;;;;;;5051077;28;20173;-69
2023/05/24 10:30:34;;;;;;;1.13;1.05;;;16.10;98.40;;;;;;5051658;28;20087;-69
2023/05/24 10:33:01;;;;;;;1.15;1.13;;;16.30;99.90;;;;;;5053199;28;20040;-69
2023/05/24 10:35:29;;;;;;;1.05;0.77;;;16.40;99.90;;;;;;5048618;28;20049;-69
2023/05/24 10:37:56;;;;;;;20.48;1.20;;;16.70;99.90;;;;;;5056163;28;20052;-69
2023/05/24 10:40:25;;;;;;;0.40;0.40;;;16.80;99.90;;;;;;5055040;28;20045;-69
2023/05/24 10:42:55;;;;;;;0.82;0.82;;;16.80;98.70;;;;;;5051991;28;20041;-69
2023/05/24 10:45:27;;;;;;;3.13;1.77;;;16.60;98.20;;;;;;5050740;28;20055;-69
2023/05/24 10:47:53;;;;;;;0.73;0.73;;;16.50;99.90;;;;;;5052511;28;20044;-69
2023/05/24 10:50:20;;;;;;;2.78;1.60;;;16.50;99.90;;;;;;5054515;28;20059;-69
2023/05/24 10:52:48;;;;;;;0.80;0.80;;;16.30;99.40;;;;;;5057803;28;20124;-69
2023/05/24 10:55:14;;;;;;;0.80;0.80;;;16.30;99.90;;;;;;5048700;28;20064;-69
2023/05/24 10:57:40;;;;;;;0.25;0.25;;;16.20;99.90;;;;;;5057024;28;20045;-69
2023/05/24 11:00:24;;;;;;;1.13;1.02;;;16.20;99.90;;;;;;5051723;28;20044;-69
2023/05/24 11:02:50;;;;;;;0.73;0.73;;;16.20;99.90;;;;;;5057280;28;20089;-69
2023/05/24 11:05:17;;;;;;;0.50;0.50;;;16.30;99.90;;;;;;5052266;28;20527;-69
2023/05/24 11:07:43;;;;;;;0.65;0.63;;;16.30;98.50;;;;;;5054905;28;20048;-69
2023/05/24 11:10:29;;;;;;;0.93;0.93;;;16.40;98.10;;;;;;5054960;28;20498;-69
2023/05/24 11:13:02;;;;;;;2.47;1.88;;;16.30;96.60;;;;;;5046568;28;20045;-69
2023/05/24 11:15:29;;;;;;;2.25;1.73;;;16.30;98.90;;;;;;5048687;28;20056;-69
2023/05/24 11:18:12;;;;;;;0.82;0.82;;;16.30;98.90;;;;;;5055891;28;20049;-69
2023/05/24 11:20:43;;;;;;;1.30;1.30;;;16.20;99.90;;;;;;5056433;28;20079;-69
2023/05/24 11:23:09;;;;;;;3.17;0.93;;;16.20;99.90;;;;;;5048220;28;20047;-69
2023/05/24 11:25:38;;;;;;;1.48;1.40;;;16.10;97.20;;;;;;5052452;28;20494;-69
2023/05/24 11:28:11;;;;;;;0.60;0.60;;;16.10;99.90;;;;;;5053735;28;20085;-69
2023/05/24 11:30:45;;;;;;;1.40;1.30;;;16.00;99.90;;;;;;5047931;28;20040;-69
2023/05/24 11:33:18;;;;;;;0.70;0.70;;;16.00;99.90;;;;;;5054551;28;20045;-69
2023/05/24 11:35:45;;;;;;;0.32;0.32;;;15.90;99.90;;;;;;5055886;28;20128;-69
2023/05/24 11:38:12;;;;;;;1.85;1.73;;;15.90;97.50;;;;;;5050217;28;20120;-69
2023/05/24 11:40:45;;;;;;;2.03;1.48;;;15.80;98.40;;;;;;5034003;28;20063;-69
2023/05/24 11:43:19;;;;;;;1.50;1.40;;;15.70;99.90;;;;;;5043492;28;20045;-69
2023/05/24 11:45:50;;;;;;;2.35;1.00;;;15.70;99.90;;;;;;5052756;28;20102;-69
2023/05/24 11:48:17;;;;;;;0.40;0.40;;;15.70;99.90;;;;;;5044661;28;20064;-69
2023/05/24 11:50:46;;;;;;;1.77;1.67;;;15.70;99.90;;;;;;5053110;28;20044;-69
2023/05/24 11:53:13;;;;;;;0.57;0.57;;;15.80;99.90;;;;;;5057586;28;20060;-69
2023/05/24 11:55:40;;;;;;;1.40;1.30;;;15.80;99.80;;;;;;5051907;28;20139;-69
2023/05/24 11:58:28;;;;;;;0.40;0.40;;;15.80;99.90;;;;;;5058243;28;20052;-69
2023/05/24 12:00:54;;;;;;;0.80;0.80;;;15.90;99.90;;;;;;5052923;28;20106;-69
2023/05/24 12:03:20;;;;;;;0.47;0.47;;;16.00;99.10;;;;;;5058467;28;20048;-69
2023/05/24 12:05:46;;;;;;;0.82;0.73;;;16.10;99.90;;;;;;5050217;28;20037;-69
2023/05/24 12:08:14;;;;;;;0.93;0.82;;;16.20;99.90;;;;;;5051870;28;20414;-69
2023/05/24 12:10:40;;;;;;;;;;;16.20;99.60;;;;;;5053095;28;20099;-69
2023/05/24 12:13:22;;;;;;;0.30;0.30;;;16.30;99.90;;;;;;5048829;28;19924;-69
2023/05/24 12:15:52;;;;;;;0.80;0.80;;;16.50;99.50;;;;;;5059339;28;20052;-69
2023/05/24 12:18:27;;;;;;;0.40;0.40;;;16.50;99.90;;;;;;5057384;28;20040;-69
2023/05/24 12:20:53;;;;;;;0.75;0.75;;;16.60;98.80;;;;;;5052741;28;20549;-69
2023/05/24 12:23:22;;;;;;;0.90;0.90;;;16.60;98.70;;;;;;5054274;28;20127;-69
2023/05/24 12:25:48;;;;;;;0.80;0.80;;;16.60;98.90;;;;;;5051082;28;20041;-69
2023/05/24 12:28:15;;;;;;;0.50;0.50;;;16.60;98.60;;;;;;5052415;28;20051;-69
2023/05/24 12:30:43;;;;;;;0.93;0.82;;;16.60;98.30;;;;;;5057856;28;20099;-69
2023/05/24 12:33:10;;;;;;;0.45;0.45;;;16.60;99.10;;;;;;5052888;28;20088;-69
2023/05/24 12:35:36;;;;;;;1.02;1.02;;;16.30;91.60;;;;;;5055695;28;20093;-69
2023/05/24 12:38:02;;;;;;;2.10;1.40;;;16.30;98.30;;;;;;5050910;28;20509;-69
2023/05/24 12:40:32;;;;;;;1.73;0.93;;;16.40;99.60;;;;;;5046785;28;20228;-69
2023/05/24 12:42:58;;;;;;;0.40;0.40;;;16.40;99.90;;;;;;5059099;28;20113;-69
2023/05/24 12:45:26;;;;;;;2.88;1.38;;;16.40;99.90;;;;;;5053532;28;20497;-69
2023/05/24 12:47:58;;;;;;;0.70;0.70;;;16.40;99.30;;;;;;5057443;28;20072;-69
2023/05/24 12:50:25;;;;;;;0.73;0.63;;;16.30;99.90;;;;;;5053691;28;20052;-69
2023/05/24 12:52:52;;;;;;;0.60;0.60;;;16.20;99.90;;;;;;5054529;28;20128;-69
2023/05/24 12:55:25;;;;;;;0.30;0.30;;;16.10;99.90;;;;;;5048316;28;20182;-69